Time;durP1;ratioP1;P1;durP2;ratioP2;P2;SDS_P1;SDS_P2;PMS_P1;PMS_P2;Temp;Humidity;BMP_temperature;BMP_pressure;BME280_temperature;BME280_humidity;BME280_pressure;Samples;Min_cycle;Max_cycle;Signal;HPM_P1;HPM_P2
2022/02/13 00:01:20;;;;;;;26.63;14.30;;;-1.70;99.90;;;;;;5974897;24;20099;-88
2022/02/13 00:05:36;;;;;;;;;;;;;;;;;;;;;
2022/02/13 00:09:33;;;;;;;24.67;14.23;;;-1.70;99.90;;;;;;5880473;23;20030;-88
2022/02/13 00:13:11;;;;;;;;;;;;;;;;;;;;;
2022/02/13 00:16:55;;;;;;;;;;;;;;;;;;;;;
2022/02/13 00:20:30;;;;;;;22.10;13.60;;;-1.60;99.90;;;;;;5967433;23;20031;-90
2022/02/13 00:23:37;;;;;;;;;;;;;;;;;;;;;
2022/02/13 00:26:37;;;;;;;22.58;13.13;;;-1.40;99.90;;;;;;6003172;23;20099;-88
2022/02/13 00:30:11;;;;;;;22.00;13.38;;;-1.40;99.90;;;;;;5985685;23;20388;-90
2022/02/13 00:33:41;;;;;;;;;;;;;;;;;;;;;
2022/02/13 00:36:48;;;;;;;20.73;12.80;;;-1.10;99.90;;;;;;6060297;23;20050;-87
2022/02/13 00:39:47;;;;;;;27.02;14.65;;;-0.90;99.90;;;;;;6060963;23;20042;-88
2022/02/13 00:42:41;;;;;;;20.75;12.80;;;-0.70;99.90;;;;;;6051368;23;20148;-89
2022/02/13 00:45:29;;;;;;;23.58;13.32;;;-0.60;99.90;;;;;;6090341;23;20050;-89
2022/02/13 00:48:47;;;;;;;24.67;12.95;;;-0.60;99.90;;;;;;6091289;23;20036;-90
2022/02/13 00:52:20;;;;;;;20.08;12.45;;;-0.60;99.90;;;;;;6031292;23;20023;-90
2022/02/13 00:55:48;;;;;;;21.92;12.65;;;-0.60;99.90;;;;;;6031307;23;20288;-89
2022/02/13 01:02:33;;;;;;;24.83;12.15;;;-0.60;99.90;;;;;;6003222;23;20044;-89
2022/02/13 01:10:39;;;;;;;21.27;12.20;;;-0.60;99.90;;;;;;5983954;23;20039;-89
2022/02/13 01:14:02;;;;;;;19.60;12.55;;;-0.70;99.90;;;;;;5963949;23;20029;-90
2022/02/13 01:17:08;;;;;;;18.92;12.00;;;-0.70;99.90;;;;;;5966610;24;20024;-88
2022/02/13 01:21:17;;;;;;;;;;;;;;;;;;;;;
2022/02/13 01:24:17;;;;;;;20.45;12.27;;;-0.60;99.90;;;;;;6089722;23;20030;-89
2022/02/13 01:27:15;;;;;;;;;;;-0.60;99.90;;;;;;6067825;23;20105;-88
2022/02/13 01:30:51;;;;;;;20.30;11.63;;;-0.50;99.90;;;;;;6083448;23;20016;-89
2022/02/13 01:33:43;;;;;;;18.40;10.82;;;-0.40;99.90;;;;;;6062275;23;20100;-87
2022/02/13 01:36:38;;;;;;;17.60;11.15;;;-0.30;99.90;;;;;;6082438;23;20050;-88
2022/02/13 01:39:26;;;;;;;17.30;11.07;;;0.00;99.90;;;;;;6087001;23;20032;-88
2022/02/13 01:42:15;;;;;;;15.10;10.20;;;0.00;99.90;;;;;;6062269;23;20120;-88
2022/02/13 01:45:22;;;;;;;17.38;10.23;;;0.10;99.90;;;;;;6061935;23;20046;-90
2022/02/13 01:48:31;;;;;;;18.60;11.43;;;0.10;99.90;;;;;;6062082;23;20048;-88
2022/02/13 01:51:21;;;;;;;18.15;11.07;;;0.10;99.90;;;;;;6062462;23;20041;-88
2022/02/13 01:54:12;;;;;;;18.35;10.20;;;0.20;99.90;;;;;;6063334;23;20048;-89
2022/02/13 01:57:13;;;;;;;21.10;10.60;;;0.30;99.90;;;;;;6062263;23;20612;-88
2022/02/13 02:00:01;;;;;;;17.55;10.35;;;0.30;99.90;;;;;;6062606;23;20027;-88
2022/02/13 02:02:57;;;;;;;14.30;9.60;;;0.30;99.90;;;;;;6062674;23;20098;-88
2022/02/13 02:05:45;;;;;;;19.63;11.38;;;0.40;99.90;;;;;;6063111;23;20130;-88
2022/02/13 02:08:32;;;;;;;18.77;10.32;;;0.40;99.90;;;;;;6145499;23;20355;-87
2022/02/13 02:11:20;;;;;;;17.88;10.50;;;0.50;99.90;;;;;;6059983;23;20379;-89
2022/02/13 02:14:07;;;;;;;17.25;10.88;;;0.50;99.90;;;;;;6061675;23;20113;-86
2022/02/13 02:16:54;;;;;;;15.13;10.10;;;0.40;99.90;;;;;;6061516;23;20034;-88
2022/02/13 02:19:46;;;;;;;18.85;10.68;;;0.50;99.90;;;;;;6059859;23;20058;-90
2022/02/13 02:22:34;;;;;;;18.05;10.23;;;0.60;99.90;;;;;;6060985;23;20130;-87
2022/02/13 02:25:21;;;;;;;18.65;10.18;;;0.70;99.90;;;;;;6060187;23;20468;-89
2022/02/13 02:28:11;;;;;;;16.55;9.27;;;0.70;99.90;;;;;;6066625;23;20117;-88
2022/02/13 02:31:01;;;;;;;17.75;10.30;;;0.70;99.90;;;;;;6067292;23;20406;-88
2022/02/13 02:33:49;;;;;;;13.82;9.70;;;0.70;99.90;;;;;;6062345;23;20104;-88
2022/02/13 02:36:39;;;;;;;14.55;9.60;;;0.80;99.90;;;;;;6061594;23;20027;-88
2022/02/13 02:39:26;;;;;;;17.73;10.25;;;0.70;99.90;;;;;;6082859;23;20336;-87
2022/02/13 02:42:14;;;;;;;17.92;10.05;;;0.60;99.90;;;;;;6061491;23;20035;-88
2022/02/13 02:45:01;;;;;;;18.05;9.70;;;0.60;99.90;;;;;;6063899;23;20103;-87
2022/02/13 02:47:50;;;;;;;15.77;9.85;;;0.60;99.90;;;;;;6070454;23;20031;-87
2022/02/13 02:50:38;;;;;;;21.85;10.55;;;0.60;99.90;;;;;;6085948;23;20050;-87
2022/02/13 02:53:31;;;;;;;15.75;9.82;;;0.60;99.90;;;;;;6067235;23;20057;-87
2022/02/13 02:56:18;;;;;;;17.73;9.85;;;0.70;99.90;;;;;;6162984;23;20038;-87
2022/02/13 02:59:05;;;;;;;15.60;9.43;;;0.80;99.90;;;;;;6064061;23;20023;-88
2022/02/13 03:01:54;;;;;;;15.73;9.85;;;0.80;99.90;;;;;;6065987;23;20030;-86
2022/02/13 03:04:42;;;;;;;16.05;10.13;;;0.80;99.90;;;;;;6065371;23;20096;-87
2022/02/13 03:07:29;;;;;;;15.80;10.45;;;0.80;99.90;;;;;;6061321;23;20050;-89
2022/02/13 03:10:18;;;;;;;17.35;9.93;;;0.90;99.90;;;;;;6065066;23;20130;-89
2022/02/13 03:13:05;;;;;;;17.58;10.07;;;0.90;99.90;;;;;;6062620;23;20078;-90
2022/02/13 03:15:53;;;;;;;15.00;9.45;;;0.80;99.90;;;;;;6062384;23;20034;-90
2022/02/13 03:18:49;;;;;;;;;;;0.80;99.90;;;;;;6067468;23;20019;-88
2022/02/13 03:21:36;;;;;;;15.35;9.07;;;0.80;99.90;;;;;;6082696;23;19917;-88
2022/02/13 03:24:25;;;;;;;22.05;10.05;;;0.90;99.90;;;;;;6061464;23;20572;-88
2022/02/13 03:27:13;;;;;;;15.15;9.20;;;0.90;99.90;;;;;;6062008;23;20031;-87
2022/02/13 03:30:02;;;;;;;20.90;10.50;;;0.80;99.90;;;;;;6062493;23;20107;-89
2022/02/13 03:32:53;;;;;;;17.08;9.82;;;0.80;99.90;;;;;;6063145;23;20038;-88
2022/02/13 03:35:46;;;;;;;15.43;8.80;;;0.80;99.90;;;;;;6065865;23;20406;-91
2022/02/13 03:38:36;;;;;;;15.60;9.55;;;0.80;99.90;;;;;;6164070;23;20410;-90
2022/02/13 03:41:23;;;;;;;16.50;10.13;;;0.70;99.90;;;;;;6067926;23;20022;-88
2022/02/13 03:44:20;;;;;;;14.18;8.80;;;0.80;99.90;;;;;;6065857;23;20039;-89
2022/02/13 03:47:08;;;;;;;19.33;9.68;;;0.70;99.90;;;;;;6068073;23;20126;-89
2022/02/13 03:50:02;;;;;;;12.48;9.43;;;0.80;99.90;;;;;;6062757;23;20030;-89
2022/02/13 03:52:58;;;;;;;16.55;8.90;;;0.80;99.90;;;;;;6062211;23;20097;-90
2022/02/13 03:55:47;;;;;;;14.52;8.73;;;0.70;99.90;;;;;;6062517;23;20080;-86
2022/02/13 03:58:34;;;;;;;18.65;9.77;;;0.70;99.90;;;;;;6062182;23;20058;-89
2022/02/13 04:01:21;;;;;;;18.85;8.88;;;0.70;99.90;;;;;;6062140;23;20110;-88
2022/02/13 04:04:09;;;;;;;14.30;9.68;;;0.80;99.90;;;;;;6062055;23;20027;-89
2022/02/13 04:06:58;;;;;;;15.50;9.18;;;0.80;99.90;;;;;;6062396;23;20128;-87
2022/02/13 04:09:47;;;;;;;16.42;9.20;;;0.80;99.90;;;;;;6062511;23;20081;-90
2022/02/13 04:12:36;;;;;;;14.05;9.18;;;0.80;99.90;;;;;;6064437;23;20096;-88
2022/02/13 04:15:24;;;;;;;15.02;8.90;;;0.80;99.90;;;;;;6061430;23;20110;-89
2022/02/13 04:18:14;;;;;;;14.70;8.98;;;0.80;99.90;;;;;;6061490;23;20027;-87
2022/02/13 04:21:01;;;;;;;17.85;8.82;;;0.80;99.90;;;;;;6065620;23;20050;-87
2022/02/13 04:23:48;;;;;;;16.05;9.10;;;0.90;99.90;;;;;;6061154;23;20027;-88
2022/02/13 04:26:40;;;;;;;12.23;8.75;;;0.90;99.90;;;;;;6064711;23;20042;-87
2022/02/13 04:29:27;;;;;;;17.00;9.73;;;0.80;99.90;;;;;;6062910;23;20030;-86
2022/02/13 04:32:20;;;;;;;14.68;9.32;;;0.80;99.90;;;;;;6061848;23;20039;-85
2022/02/13 04:35:07;;;;;;;16.20;8.60;;;0.80;99.90;;;;;;6061408;23;20349;-89
2022/02/13 04:37:56;;;;;;;17.52;9.52;;;0.80;99.90;;;;;;6063144;23;20035;-88
2022/02/13 04:40:43;;;;;;;11.90;8.32;;;0.80;99.90;;;;;;6064013;23;20023;-85
2022/02/13 04:43:30;;;;;;;17.02;9.02;;;0.80;99.90;;;;;;6066437;23;20033;-85
2022/02/13 04:46:18;;;;;;;13.43;8.93;;;0.90;99.90;;;;;;6070327;23;20035;-87
2022/02/13 04:49:05;;;;;;;14.55;9.35;;;0.80;99.90;;;;;;6166750;23;20126;-88
2022/02/13 04:51:59;;;;;;;14.75;8.70;;;0.80;99.90;;;;;;6063848;23;20026;-88
2022/02/13 04:54:49;;;;;;;16.80;9.48;;;0.90;99.90;;;;;;6063286;23;20033;-87
2022/02/13 04:57:36;;;;;;;15.38;9.30;;;0.90;99.90;;;;;;6063029;23;20023;-88
2022/02/13 05:00:24;;;;;;;12.55;7.72;;;0.90;99.90;;;;;;6063189;23;20027;-86
2022/02/13 05:03:14;;;;;;;13.98;9.05;;;0.90;99.90;;;;;;6064947;23;20358;-87
2022/02/13 05:06:02;;;;;;;14.38;8.48;;;0.90;99.90;;;;;;6064173;23;20031;-88
2022/02/13 05:08:56;;;;;;;15.45;8.80;;;0.80;99.90;;;;;;6070352;23;20040;-88
2022/02/13 05:11:43;;;;;;;17.30;8.90;;;0.80;99.90;;;;;;6085318;23;20707;-88
2022/02/13 05:14:30;;;;;;;13.50;8.32;;;0.80;99.90;;;;;;6077265;23;20330;-89
2022/02/13 05:17:18;;;;;;;13.60;8.73;;;0.80;99.90;;;;;;6083599;23;20031;-89
2022/02/13 05:20:06;;;;;;;15.85;9.45;;;0.80;99.90;;;;;;6077265;23;20288;-87
2022/02/13 05:22:55;;;;;;;17.17;8.82;;;0.80;99.90;;;;;;6069430;23;20031;-88
2022/02/13 05:25:56;;;;;;;13.55;8.68;;;0.90;99.90;;;;;;6071654;23;20037;-87
2022/02/13 05:28:44;;;;;;;17.23;9.43;;;0.80;99.90;;;;;;6071896;23;20354;-89
2022/02/13 05:31:32;;;;;;;14.48;8.43;;;0.90;99.90;;;;;;6067261;23;20281;-88
2022/02/13 05:34:19;;;;;;;15.02;8.27;;;0.90;99.90;;;;;;6075357;23;20621;-87
2022/02/13 05:37:07;;;;;;;13.23;8.40;;;0.90;99.90;;;;;;6077645;23;20452;-87
2022/02/13 05:39:54;;;;;;;13.25;8.50;;;0.90;99.90;;;;;;6075049;23;20073;-86
2022/02/13 05:42:49;;;;;;;13.48;8.10;;;0.90;99.90;;;;;;6075960;23;20099;-90
2022/02/13 05:45:41;;;;;;;18.02;8.38;;;0.90;99.90;;;;;;6082663;23;20094;-89
2022/02/13 05:48:30;;;;;;;18.15;8.70;;;1.00;99.90;;;;;;6086315;23;20158;-87
2022/02/13 05:51:18;;;;;;;11.82;7.55;;;1.00;99.90;;;;;;6078419;23;20161;-88
2022/02/13 05:54:09;;;;;;;13.48;8.05;;;1.00;99.90;;;;;;6074008;23;20026;-86
2022/02/13 05:56:57;;;;;;;14.98;8.00;;;1.00;99.90;;;;;;6066004;23;20058;-87
2022/02/13 05:59:44;;;;;;;12.68;7.93;;;1.00;99.90;;;;;;6068380;23;20033;-88
2022/02/13 06:02:32;;;;;;;13.68;8.07;;;0.90;99.90;;;;;;6066993;23;20375;-87
2022/02/13 06:05:19;;;;;;;14.70;7.63;;;0.90;99.90;;;;;;6067020;23;20059;-87
2022/02/13 06:08:07;;;;;;;14.18;8.20;;;0.90;99.90;;;;;;6068378;23;20042;-87
2022/02/13 06:10:54;;;;;;;15.80;8.63;;;1.00;99.90;;;;;;6068093;23;20027;-88
2022/02/13 06:13:42;;;;;;;15.45;8.70;;;1.00;99.90;;;;;;6063312;23;20049;-89
2022/02/13 06:16:41;;;;;;;20.35;9.20;;;1.00;99.90;;;;;;6063060;23;20105;-88
2022/02/13 06:19:52;;;;;;;15.15;8.45;;;1.00;99.90;;;;;;6064009;23;20023;-92
2022/02/13 06:23:17;;;;;;;14.95;9.13;;;1.00;99.90;;;;;;6064800;23;20085;-89
2022/02/13 06:26:46;;;;;;;;;;;;;;;;;;;;;
2022/02/13 06:30:00;;;;;;;20.52;8.85;;;1.00;99.90;;;;;;6127632;23;20120;-89
2022/02/13 06:34:02;;;;;;;18.65;9.05;;;1.00;99.90;;;;;;6117574;23;20029;-87
2022/02/13 06:45:37;;;;;;;13.98;8.27;;;0.90;99.90;;;;;;5901505;24;20037;-88
2022/02/13 06:53:38;;;;;;;;;;;;;;;;;;;;;
2022/02/13 06:57:18;;;;;;;18.60;8.73;;;1.00;99.90;;;;;;5944617;24;20024;-89
2022/02/13 07:21:51;;;;;;;;;;;;;;;;;;;;;
2022/02/13 07:25:30;;;;;;;;;;;;;;;;;;;;;
2022/02/13 07:29:50;;;;;;;;;;;;;;;;;;;;;
2022/02/13 07:49:25;;;;;;;14.38;7.65;;;3.10;99.90;;;;;;6045345;23;20086;-84
2022/02/13 07:52:12;;;;;;;14.60;7.68;;;3.20;99.90;;;;;;6044350;23;20030;-86
2022/02/13 08:22:35;;;;;;;15.25;7.82;;;4.00;99.90;;;;;;6299776;22;20115;-91
2022/02/13 08:25:28;;;;;;;19.13;7.22;;;4.00;99.90;;;;;;6240510;22;20087;-87
2022/02/13 08:28:18;;;;;;;11.50;7.13;;;4.30;99.90;;;;;;6272002;22;20012;-86
2022/02/13 08:31:06;;;;;;;16.73;6.78;;;4.50;99.90;;;;;;6271595;22;20019;-83
2022/02/13 08:33:57;;;;;;;13.30;7.15;;;4.70;99.90;;;;;;6270553;22;20042;-87
2022/02/13 08:55:53;;;;;;;16.00;7.13;;;6.40;99.90;;;;;;6250387;22;20023;-87
2022/02/13 08:58:53;;;;;;;12.63;6.45;;;6.60;99.20;;;;;;6225615;23;20284;-87
2022/02/13 09:01:50;;;;;;;14.40;6.93;;;6.80;98.40;;;;;;6228264;23;20028;-88
2022/02/13 09:04:53;;;;;;;10.07;5.97;;;6.80;97.50;;;;;;6235380;23;20024;-86
2022/02/13 09:08:11;;;;;;;15.65;6.65;;;7.00;97.10;;;;;;6250321;23;20093;-88
2022/02/13 09:11:40;;;;;;;12.45;6.90;;;7.80;95.30;;;;;;6227520;23;20024;-88
2022/02/13 09:14:43;;;;;;;15.25;7.05;;;8.50;92.20;;;;;;6246138;23;20028;-89
2022/02/13 09:17:51;;;;;;;10.30;6.97;;;9.10;88.70;;;;;;6229071;23;20024;-88
2022/02/13 09:20:55;;;;;;;;;;;;;;;;;;;;;
2022/02/13 09:23:57;;;;;;;16.05;6.68;;;9.10;85.70;;;;;;6247750;23;20024;-86
2022/02/13 09:26:48;;;;;;;13.93;6.40;;;9.10;84.80;;;;;;6224110;23;20331;-86
2022/02/13 09:30:15;;;;;;;16.90;6.75;;;9.00;84.90;;;;;;6245378;23;20020;-86
2022/02/13 09:33:14;;;;;;;11.48;6.82;;;9.30;83.80;;;;;;6226167;23;20038;-86
2022/02/13 09:36:03;;;;;;;14.50;6.63;;;9.60;82.00;;;;;;6223677;23;20323;-85
2022/02/13 09:39:20;;;;;;;;;;;;;;;;;;;;;
2022/02/13 09:42:22;;;;;;;14.52;6.53;;;10.50;77.80;;;;;;6212893;23;20036;-87
2022/02/13 09:45:19;;;;;;;12.93;6.53;;;11.00;74.00;;;;;;6212445;23;20110;-86
2022/02/13 09:48:26;;;;;;;13.10;6.45;;;11.20;71.50;;;;;;6214753;23;20347;-87
2022/02/13 09:51:26;;;;;;;12.63;7.13;;;10.90;71.00;;;;;;6212537;23;20056;-89
2022/02/13 09:54:19;;;;;;;12.85;6.00;;;11.10;72.40;;;;;;6213669;23;20032;-86
2022/02/13 10:01:19;;;;;;;14.57;6.07;;;12.00;67.90;;;;;;6213147;23;20381;-88
2022/02/13 10:04:41;;;;;;;11.55;5.97;;;12.90;65.40;;;;;;6211844;23;20020;-89
2022/02/13 10:07:38;;;;;;;13.77;6.13;;;13.30;62.20;;;;;;6214880;23;20056;-88
2022/02/13 10:10:26;;;;;;;14.07;6.35;;;13.50;60.50;;;;;;6213198;23;20021;-87
2022/02/13 10:13:18;;;;;;;17.73;5.82;;;13.80;58.60;;;;;;6215301;23;20024;-88
2022/02/13 10:16:26;;;;;;;22.48;9.43;;;13.70;57.70;;;;;;6213376;23;20114;-89
2022/02/13 10:19:42;;;;;;;15.85;5.63;;;13.40;58.90;;;;;;6214164;23;20386;-87
2022/02/13 10:22:56;;;;;;;9.30;5.05;;;13.60;58.60;;;;;;6217775;23;20024;-87
2022/02/13 10:25:55;;;;;;;10.60;5.40;;;14.20;57.30;;;;;;6196628;23;20024;-87
2022/02/13 10:28:54;;;;;;;10.52;5.60;;;14.20;56.20;;;;;;6213858;23;20423;-87
2022/02/13 10:32:10;;;;;;;14.30;6.15;;;14.00;56.10;;;;;;6211557;23;20088;-88
2022/02/13 10:35:16;;;;;;;13.45;5.60;;;13.50;56.60;;;;;;6212508;23;20147;-86
2022/02/13 10:38:36;;;;;;;14.98;5.80;;;13.30;57.20;;;;;;6215394;23;20038;-90
2022/02/13 10:41:35;;;;;;;14.38;6.10;;;13.50;57.10;;;;;;6212249;23;20096;-89
2022/02/13 10:44:29;;;;;;;13.48;6.60;;;12.80;58.00;;;;;;6212845;23;20025;-88
2022/02/13 10:47:28;;;;;;;;;;;13.00;59.00;;;;;;6213960;23;20026;-87
2022/02/13 10:50:22;;;;;;;12.13;5.82;;;13.60;57.70;;;;;;6214382;23;20177;-87
2022/02/13 10:53:18;;;;;;;12.48;5.80;;;13.80;56.10;;;;;;6216086;23;20035;-87
2022/02/13 10:56:37;;;;;;;14.10;5.90;;;13.80;55.90;;;;;;6213782;23;20036;-86
2022/02/13 10:59:42;;;;;;;15.05;6.60;;;13.50;56.40;;;;;;6216194;23;20068;-87
2022/02/13 11:02:44;;;;;;;9.32;5.35;;;13.40;56.40;;;;;;6214439;23;20021;-88
2022/02/13 11:05:44;;;;;;;14.57;6.18;;;13.30;57.00;;;;;;6216057;23;20063;-88
2022/02/13 11:08:56;;;;;;;14.32;5.88;;;13.30;57.10;;;;;;6216185;23;20028;-87
2022/02/13 11:12:04;;;;;;;14.43;6.30;;;13.20;57.60;;;;;;6213518;23;20037;-87
2022/02/13 11:15:15;;;;;;;11.95;6.03;;;13.20;57.10;;;;;;6211148;23;20032;-87
2022/02/13 11:18:14;;;;;;;10.40;5.70;;;13.60;56.10;;;;;;6213338;23;20044;-86
2022/02/13 11:21:15;;;;;;;14.45;6.65;;;13.70;55.70;;;;;;6213443;23;20104;-87
2022/02/13 11:28:16;;;;;;;;;;;;;;;;;;;;;
2022/02/13 11:31:10;;;;;;;11.00;5.35;;;15.40;53.00;;;;;;6124702;23;20026;-88
2022/02/13 11:34:43;;;;;;;;;;;;;;;;;;;;;
2022/02/13 11:38:02;;;;;;;10.82;5.45;;;14.80;52.80;;;;;;6117542;23;20418;-90
2022/02/13 11:41:08;;;;;;;13.38;5.90;;;15.50;51.00;;;;;;6126508;23;20117;-87
2022/02/13 11:43:59;;;;;;;9.60;4.93;;;15.10;51.20;;;;;;6109787;23;20026;-86
2022/02/13 11:46:50;;;;;;;11.80;4.97;;;15.00;50.00;;;;;;6215982;23;20024;-88
2022/02/13 11:50:21;;;;;;;13.43;6.68;;;14.80;51.00;;;;;;6216906;23;20060;-86
2022/02/13 11:53:36;;;;;;;13.25;5.97;;;15.20;50.30;;;;;;6212395;23;20317;-85
2022/02/13 11:56:30;;;;;;;9.95;5.55;;;15.00;50.10;;;;;;6214896;23;20029;-88
2022/02/13 11:59:57;;;;;;;11.60;5.50;;;15.20;49.20;;;;;;6217387;23;20035;-85
2022/02/13 12:03:37;;;;;;;13.40;5.63;;;15.40;48.10;;;;;;6136415;23;20025;-85
2022/02/13 12:13:43;;;;;;;11.82;4.95;;;15.40;47.80;;;;;;6131728;23;20499;-86
2022/02/13 12:16:54;;;;;;;16.17;5.68;;;14.70;49.30;;;;;;6134190;23;20026;-85
2022/02/13 12:20:31;;;;;;;11.48;5.22;;;15.00;49.70;;;;;;6138083;23;20010;-86
2022/02/13 12:23:28;;;;;;;10.65;4.75;;;15.10;49.20;;;;;;6135677;23;20116;-86
2022/02/13 12:26:30;;;;;;;9.90;4.75;;;15.10;48.90;;;;;;6142107;23;20033;-86
2022/02/13 12:29:25;;;;;;;9.98;4.70;;;15.00;49.00;;;;;;6150226;23;20076;-86
2022/02/13 12:32:34;;;;;;;10.10;5.00;;;15.80;48.50;;;;;;6144383;23;20049;-85
2022/02/13 12:36:05;;;;;;;10.23;4.20;;;15.60;48.00;;;;;;6167975;23;20057;-85
2022/02/13 12:39:51;;;;;;;13.95;5.18;;;15.70;48.20;;;;;;6158995;23;20487;-87
2022/02/13 12:47:40;;;;;;;8.88;4.68;;;15.40;48.20;;;;;;6227825;23;20052;-87
2022/02/13 12:50:32;;;;;;;13.55;4.60;;;15.70;47.50;;;;;;6225284;23;20098;-87
2022/02/13 12:53:30;;;;;;;9.77;4.20;;;16.20;46.70;;;;;;6224575;23;20034;-88
2022/02/13 12:56:25;;;;;;;8.63;4.80;;;15.80;46.80;;;;;;6221699;23;20032;-87
2022/02/13 12:59:22;;;;;;;9.07;4.45;;;15.60;47.40;;;;;;6217597;23;20435;-86
2022/02/13 13:02:20;;;;;;;12.35;5.40;;;15.40;47.50;;;;;;6213890;23;20025;-88
2022/02/13 13:05:18;;;;;;;11.25;4.20;;;15.20;48.20;;;;;;6215048;23;20110;-87
2022/02/13 13:08:25;;;;;;;8.20;3.95;;;15.30;48.00;;;;;;6216986;23;20083;-88
2022/02/13 13:11:25;;;;;;;10.43;4.63;;;15.80;47.30;;;;;;6217360;23;20456;-85
2022/02/13 13:14:20;;;;;;;7.53;4.45;;;15.70;46.90;;;;;;6217845;23;20042;-85
2022/02/13 13:17:18;;;;;;;9.82;4.38;;;15.90;47.10;;;;;;6217322;23;20043;-87
2022/02/13 13:20:38;;;;;;;8.80;4.22;;;15.90;47.80;;;;;;6217947;23;20074;-89
2022/02/13 13:24:18;;;;;;;11.50;4.82;;;15.90;46.50;;;;;;6217157;23;20024;-89
2022/02/13 13:27:35;;;;;;;9.73;4.10;;;16.20;47.10;;;;;;6139508;23;20302;-91
2022/02/13 13:30:26;;;;;;;10.63;4.20;;;16.00;46.40;;;;;;6216271;23;20094;-90
2022/02/13 13:33:30;;;;;;;8.88;3.83;;;16.10;46.30;;;;;;6215851;23;20016;-87
2022/02/13 13:36:29;;;;;;;8.68;4.00;;;15.80;45.90;;;;;;6217751;23;20098;-88
2022/02/13 13:39:37;;;;;;;9.38;3.83;;;16.40;46.10;;;;;;6232189;23;20036;-90
2022/02/13 13:43:10;;;;;;;9.57;3.90;;;16.60;45.70;;;;;;6235358;23;20070;-88
2022/02/13 13:46:11;;;;;;;11.23;4.45;;;16.50;45.10;;;;;;6239373;23;20024;-86
2022/02/13 13:48:59;;;;;;;7.43;3.95;;;16.50;45.30;;;;;;6235958;23;20114;-86
2022/02/13 13:51:47;;;;;;;7.35;4.00;;;16.10;44.90;;;;;;6231150;23;20028;-87
2022/02/13 13:54:44;;;;;;;10.05;4.25;;;15.80;45.90;;;;;;6260321;23;20085;-86
2022/02/13 13:57:32;;;;;;;13.35;4.32;;;15.80;46.60;;;;;;6235800;23;20028;-88
2022/02/13 14:00:19;;;;;;;6.95;3.70;;;15.80;47.30;;;;;;6263594;23;20078;-87
2022/02/13 14:03:09;;;;;;;9.18;3.67;;;15.70;46.00;;;;;;6266054;22;20020;-90
2022/02/13 14:06:02;;;;;;;5.43;3.60;;;16.30;45.30;;;;;;6255536;23;20082;-89
2022/02/13 14:08:51;;;;;;;10.40;3.70;;;15.80;45.70;;;;;;6236219;23;20043;-89
2022/02/13 14:11:43;;;;;;;8.25;3.78;;;16.10;45.70;;;;;;6249567;23;20086;-90
2022/02/13 14:14:31;;;;;;;8.65;3.42;;;16.70;45.10;;;;;;6245437;23;20039;-87
2022/02/13 14:17:18;;;;;;;7.50;3.47;;;17.00;44.20;;;;;;6245269;23;20024;-87
2022/02/13 14:20:06;;;;;;;6.63;3.22;;;16.70;43.80;;;;;;6221474;23;20075;-87
2022/02/13 14:22:54;;;;;;;5.78;3.30;;;16.80;43.20;;;;;;6222970;23;20020;-89
2022/02/13 14:25:41;;;;;;;10.00;4.00;;;15.90;44.20;;;;;;6225259;23;20035;-89
2022/02/13 14:28:33;;;;;;;10.93;3.30;;;15.80;45.50;;;;;;6223974;23;20050;-86
2022/02/13 14:31:25;;;;;;;8.90;3.58;;;15.80;45.00;;;;;;6228146;23;20032;-91
2022/02/13 14:34:20;;;;;;;7.65;3.40;;;15.70;45.20;;;;;;6230459;23;20533;-89
2022/02/13 14:37:09;;;;;;;8.23;3.42;;;15.60;45.60;;;;;;6223583;23;20036;-88
2022/02/13 14:40:03;;;;;;;7.82;3.28;;;15.90;45.40;;;;;;6245957;23;20031;-86
2022/02/13 14:42:55;;;;;;;7.88;3.47;;;16.00;44.80;;;;;;6245312;23;20397;-87
2022/02/13 14:45:43;;;;;;;8.50;3.60;;;15.70;45.20;;;;;;6245232;23;20031;-88
2022/02/13 14:48:35;;;;;;;7.97;3.42;;;15.50;45.50;;;;;;6222334;23;20028;-89
2022/02/13 14:51:22;;;;;;;10.38;3.60;;;15.30;46.40;;;;;;6200690;23;20024;-87
2022/02/13 14:54:10;;;;;;;6.35;3.17;;;15.30;46.80;;;;;;6222148;23;20076;-87
2022/02/13 14:56:59;;;;;;;8.13;2.95;;;15.10;46.60;;;;;;6224161;23;20035;-86
2022/02/13 14:59:46;;;;;;;8.23;3.38;;;15.10;46.50;;;;;;6222017;23;20303;-87
2022/02/13 15:02:35;;;;;;;9.65;3.30;;;15.30;45.90;;;;;;6225668;23;20024;-86
2022/02/13 15:05:26;;;;;;;8.75;3.53;;;15.30;45.90;;;;;;6221779;23;20380;-88
2022/02/13 15:08:16;;;;;;;8.32;3.45;;;15.00;46.40;;;;;;6223187;23;20063;-87
2022/02/13 15:11:06;;;;;;;6.15;3.05;;;15.10;46.30;;;;;;6222831;23;20028;-88
2022/02/13 15:13:55;;;;;;;5.53;3.42;;;14.80;46.30;;;;;;6221347;23;20154;-86
2022/02/13 15:16:47;;;;;;;5.82;3.60;;;14.70;46.40;;;;;;6243394;23;20040;-87
2022/02/13 15:19:36;;;;;;;5.57;3.13;;;14.40;47.50;;;;;;6226050;23;20024;-86
2022/02/13 15:22:29;;;;;;;5.97;2.92;;;14.50;47.00;;;;;;6245631;23;20420;-87
2022/02/13 15:25:17;;;;;;;7.82;3.20;;;14.30;46.60;;;;;;6224244;23;20020;-87
2022/02/13 15:28:38;;;;;;;9.00;3.15;;;14.00;47.70;;;;;;6220746;23;20024;-91
2022/02/13 15:35:14;;;;;;;7.88;3.47;;;14.30;47.40;;;;;;6247121;23;20028;-88
2022/02/13 15:38:10;;;;;;;8.50;2.85;;;14.60;46.90;;;;;;6227182;23;20079;-88
2022/02/13 15:40:58;;;;;;;7.28;3.03;;;14.40;46.80;;;;;;6251482;23;20024;-89
2022/02/13 15:43:45;;;;;;;6.45;4.07;;;13.80;46.80;;;;;;6224347;23;20024;-87
2022/02/13 15:46:45;;;;;;;6.45;3.08;;;13.70;47.70;;;;;;6227751;23;20024;-90
2022/02/13 15:49:42;;;;;;;11.82;3.05;;;13.40;48.40;;;;;;6246690;23;20043;-88
2022/02/13 15:52:52;;;;;;;4.03;2.97;;;13.10;49.20;;;;;;6246552;23;20039;-87
2022/02/13 15:55:42;;;;;;;6.85;2.78;;;13.00;49.40;;;;;;6245756;23;20307;-90
2022/02/13 15:58:39;;;;;;;8.45;2.55;;;12.90;49.80;;;;;;6228421;23;20078;-86
2022/02/13 16:01:38;;;;;;;5.82;3.08;;;12.70;50.00;;;;;;6248320;22;20113;-85
2022/02/13 16:04:31;;;;;;;6.35;3.67;;;12.40;50.00;;;;;;6246829;23;20039;-88
2022/02/13 16:07:23;;;;;;;6.22;3.10;;;12.20;51.00;;;;;;6225230;23;20028;-85
2022/02/13 16:10:13;;;;;;;7.32;3.35;;;12.00;51.50;;;;;;6204542;23;20032;-88
2022/02/13 16:13:04;;;;;;;7.65;2.80;;;11.90;51.50;;;;;;6246578;23;20098;-86
2022/02/13 16:15:59;;;;;;;6.53;3.40;;;11.40;52.80;;;;;;6224978;23;20031;-88
2022/02/13 16:19:03;;;;;;;10.00;3.17;;;11.10;53.60;;;;;;6212568;23;20028;-85
2022/02/13 16:22:03;;;;;;;9.52;3.30;;;10.60;54.20;;;;;;6248248;23;20020;-89
2022/02/13 16:25:07;;;;;;;;;;;;;;;;;;;;;
2022/02/13 16:28:22;;;;;;;6.60;2.95;;;9.60;57.10;;;;;;6230593;23;20101;-88
2022/02/13 16:31:17;;;;;;;7.78;2.83;;;9.20;58.90;;;;;;6226665;23;20071;-86
2022/02/13 16:34:08;;;;;;;5.93;3.38;;;9.00;59.00;;;;;;6253086;23;20028;-86
2022/02/13 16:37:09;;;;;;;8.90;3.72;;;8.80;59.90;;;;;;6175567;23;20083;-86
2022/02/13 16:40:11;;;;;;;7.65;3.40;;;8.60;60.50;;;;;;6245349;23;20026;-87
2022/02/13 16:43:01;;;;;;;8.27;3.92;;;8.50;60.90;;;;;;6257356;23;20142;-88
2022/02/13 16:45:52;;;;;;;8.40;4.00;;;8.30;61.30;;;;;;6238009;23;20030;-85
2022/02/13 16:48:39;;;;;;;12.45;3.75;;;8.30;61.50;;;;;;6227373;23;20099;-86
2022/02/13 16:51:27;;;;;;;7.57;3.85;;;8.20;61.60;;;;;;6229876;23;20135;-83
2022/02/13 16:54:19;;;;;;;7.25;3.28;;;8.10;62.00;;;;;;6227269;23;20028;-85
2022/02/13 16:57:06;;;;;;;6.45;2.72;;;8.00;61.50;;;;;;6222923;23;20028;-85
2022/02/13 16:59:56;;;;;;;6.20;3.40;;;8.10;61.80;;;;;;6222919;23;20265;-84
2022/02/13 17:02:48;;;;;;;6.72;3.08;;;8.00;61.50;;;;;;6221950;23;20070;-87
2022/02/13 17:05:35;;;;;;;7.35;3.45;;;7.90;63.00;;;;;;6221243;23;20036;-83
2022/02/13 17:08:26;;;;;;;12.38;4.20;;;7.90;61.90;;;;;;6221511;23;20024;-86
2022/02/13 17:11:16;;;;;;;6.22;3.70;;;7.80;61.90;;;;;;6242884;23;20435;-82
2022/02/13 17:14:04;;;;;;;7.10;3.90;;;7.70;61.90;;;;;;6222287;23;20054;-87
2022/02/13 17:16:53;;;;;;;6.53;3.97;;;7.70;61.40;;;;;;6222809;23;20046;-87
2022/02/13 17:19:44;;;;;;;7.97;3.88;;;7.70;61.80;;;;;;6220722;23;20089;-85
2022/02/13 17:22:40;;;;;;;;;;;7.70;61.30;;;;;;6225147;23;20024;-88
2022/02/13 17:25:29;;;;;;;6.10;3.80;;;7.60;62.00;;;;;;6221755;23;20291;-86
2022/02/13 17:28:23;;;;;;;6.25;3.40;;;7.50;62.50;;;;;;6222604;23;20050;-85
2022/02/13 17:31:10;;;;;;;5.30;3.67;;;7.30;62.70;;;;;;6245211;23;20027;-86
2022/02/13 17:34:03;;;;;;;7.07;3.42;;;7.30;63.10;;;;;;6225383;23;20108;-87
2022/02/13 17:36:54;;;;;;;7.68;3.90;;;7.20;62.70;;;;;;6225114;23;20028;-87
2022/02/13 17:39:46;;;;;;;9.00;4.97;;;7.30;62.70;;;;;;6222516;23;20099;-86
2022/02/13 17:42:34;;;;;;;9.65;5.38;;;7.20;62.70;;;;;;6221548;23;20435;-86
2022/02/13 17:45:25;;;;;;;10.93;4.88;;;7.20;63.60;;;;;;6221724;23;20058;-86
2022/02/13 17:48:16;;;;;;;9.20;4.60;;;7.00;63.10;;;;;;6220994;23;20031;-85
2022/02/13 17:51:05;;;;;;;8.40;4.70;;;7.00;63.70;;;;;;6222015;23;20024;-85
2022/02/13 17:53:52;;;;;;;13.05;5.28;;;6.80;63.60;;;;;;6222794;23;20028;-86
2022/02/13 17:56:45;;;;;;;9.95;5.07;;;6.80;64.00;;;;;;6244784;23;20028;-87
2022/02/13 17:59:35;;;;;;;7.78;4.15;;;6.70;64.10;;;;;;6245775;23;20427;-87